CFG7NT LKPR-EDDF
Flight info
| Callsign | CFG7NT |
|---|---|
| Flight time | 1h 38m |
| Altitude | 30000 |
| Route | BALTU DCT DONAD DCT RAPET T170 VAGAB/N0402F240 T170 GAPLA T178 KERAX KERAX5D |
| Aircraft | E190/M-SDE3GILORVW/S |
Departure
| Time | 2026-04-15 09:34 |
|---|---|
| Airport | Václav Havel Airport Prague (LKPR) |
Arrival
| Time | 2026-04-15 11:12 |
|---|---|
| Airport | Frankfurt Main Airport (EDDF) |
| Time | Latitude | Longitude | Altitude | Speed | Heading |
|---|---|---|---|---|---|
| 2026-04-15 09:08 | 50.10699 | 14.26379 | 1176 ft | 0 kts | 214° |
| 2026-04-15 09:22 | 50.10700 | 14.26380 | 1176 ft | 1 kts | 214° |
| 2026-04-15 09:22 | 50.10714 | 14.26394 | 1171 ft | 3 kts | 214° |
| 2026-04-15 09:22 | 50.10730 | 14.26411 | 1171 ft | 3 kts | 222° |
| 2026-04-15 09:23 | 50.10737 | 14.26427 | 1171 ft | 3 kts | 289° |
| 2026-04-15 09:23 | 50.10732 | 14.26445 | 1171 ft | 0 kts | 304° |
| 2026-04-15 09:23 | 50.10738 | 14.26430 | 1176 ft | 3 kts | 304° |
| 2026-04-15 09:23 | 50.10750 | 14.26404 | 1173 ft | 3 kts | 304° |
| 2026-04-15 09:24 | 50.10761 | 14.26378 | 1175 ft | 3 kts | 304° |
| 2026-04-15 09:24 | 50.10773 | 14.26352 | 1175 ft | 3 kts | 304° |
| 2026-04-15 09:24 | 50.10781 | 14.26334 | 1176 ft | 1 kts | 304° |
| 2026-04-15 09:27 | 50.10787 | 14.26320 | 1172 ft | 3 kts | 304° |
| 2026-04-15 09:27 | 50.10800 | 14.26270 | 1173 ft | 6 kts | 270° |
| 2026-04-15 09:27 | 50.10762 | 14.26209 | 1174 ft | 10 kts | 214° |
| 2026-04-15 09:27 | 50.10696 | 14.26139 | 1173 ft | 13 kts | 214° |
| 2026-04-15 09:28 | 50.10621 | 14.26063 | 1175 ft | 12 kts | 210° |
| 2026-04-15 09:28 | 50.10550 | 14.25991 | 1178 ft | 11 kts | 214° |
| 2026-04-15 09:28 | 50.10492 | 14.25995 | 1183 ft | 10 kts | 137° |
| 2026-04-15 09:28 | 50.10442 | 14.26097 | 1185 ft | 14 kts | 127° |
| 2026-04-15 09:29 | 50.10376 | 14.26235 | 1188 ft | 18 kts | 127° |
| 2026-04-15 09:29 | 50.10300 | 14.26393 | 1191 ft | 18 kts | 127° |
| 2026-04-15 09:29 | 50.10225 | 14.26548 | 1194 ft | 18 kts | 127° |
| 2026-04-15 09:29 | 50.10150 | 14.26703 | 1196 ft | 18 kts | 126° |
| 2026-04-15 09:30 | 50.10074 | 14.26859 | 1200 ft | 18 kts | 127° |
| 2026-04-15 09:30 | 50.10002 | 14.27009 | 1203 ft | 17 kts | 127° |
| 2026-04-15 09:30 | 50.09929 | 14.27162 | 1205 ft | 18 kts | 127° |
| 2026-04-15 09:30 | 50.09846 | 14.27326 | 1203 ft | 20 kts | 133° |
| 2026-04-15 09:31 | 50.09745 | 14.27483 | 1205 ft | 21 kts | 135° |
| 2026-04-15 09:31 | 50.09638 | 14.27644 | 1206 ft | 22 kts | 136° |
| 2026-04-15 09:31 | 50.09530 | 14.27809 | 1210 ft | 21 kts | 135° |
| 2026-04-15 09:31 | 50.09430 | 14.27964 | 1216 ft | 20 kts | 134° |
| 2026-04-15 09:32 | 50.09336 | 14.28111 | 1220 ft | 19 kts | 135° |
| 2026-04-15 09:32 | 50.09248 | 14.28247 | 1225 ft | 16 kts | 136° |
| 2026-04-15 09:32 | 50.09162 | 14.28281 | 1232 ft | 11 kts | 204° |
| 2026-04-15 09:32 | 50.09113 | 14.28224 | 1242 ft | 9 kts | 222° |
| 2026-04-15 09:33 | 50.09068 | 14.28152 | 1233 ft | 8 kts | 242° |
| 2026-04-15 09:33 | 50.09089 | 14.28079 | 1231 ft | 8 kts | 309° |
| 2026-04-15 09:33 | 50.09146 | 14.27965 | 1232 ft | 33 kts | 307° |
| 2026-04-15 09:33 | 50.09445 | 14.27343 | 1217 ft | 109 kts | 306° |
| 2026-04-15 09:34 | 50.10032 | 14.26140 | 1322 ft | 161 kts | 309° |
| 2026-04-15 09:34 | 50.10777 | 14.24629 | 1914 ft | 189 kts | 308° |
| 2026-04-15 09:34 | 50.11588 | 14.22927 | 2744 ft | 200 kts | 308° |
| 2026-04-15 09:34 | 50.12438 | 14.21138 | 3398 ft | 211 kts | 308° |
| 2026-04-15 09:35 | 50.13347 | 14.19243 | 3952 ft | 227 kts | 307° |
| 2026-04-15 09:35 | 50.14315 | 14.17235 | 4640 ft | 237 kts | 307° |
| 2026-04-15 09:35 | 50.15365 | 14.15056 | 5058 ft | 267 kts | 307° |
| 2026-04-15 09:35 | 50.16498 | 14.12695 | 5912 ft | 273 kts | 306° |
| 2026-04-15 09:36 | 50.17642 | 14.10313 | 6889 ft | 275 kts | 306° |
| 2026-04-15 09:36 | 50.18788 | 14.07930 | 7818 ft | 275 kts | 306° |
| 2026-04-15 09:36 | 50.19934 | 14.05537 | 8713 ft | 276 kts | 306° |
| 2026-04-15 09:36 | 50.21088 | 14.03123 | 9550 ft | 280 kts | 306° |
| 2026-04-15 09:37 | 50.22186 | 14.00602 | 10370 ft | 282 kts | 295° |
| 2026-04-15 09:37 | 50.22662 | 13.97542 | 10675 ft | 303 kts | 267° |
| 2026-04-15 09:37 | 50.22177 | 13.94245 | 11015 ft | 322 kts | 252° |
| 2026-04-15 09:37 | 50.21444 | 13.90866 | 11556 ft | 333 kts | 251° |
| 2026-04-15 09:38 | 50.20716 | 13.87404 | 12374 ft | 338 kts | 252° |
| 2026-04-15 09:38 | 50.20008 | 13.83892 | 13242 ft | 342 kts | 253° |
| 2026-04-15 09:38 | 50.19294 | 13.80316 | 14151 ft | 347 kts | 253° |
| 2026-04-15 09:38 | 50.18564 | 13.76702 | 15004 ft | 352 kts | 253° |
| 2026-04-15 09:39 | 50.17814 | 13.73036 | 15873 ft | 357 kts | 253° |
| 2026-04-15 09:39 | 50.17051 | 13.69364 | 16681 ft | 363 kts | 252° |
| 2026-04-15 09:39 | 50.16256 | 13.65599 | 17476 ft | 368 kts | 252° |
| 2026-04-15 09:39 | 50.15440 | 13.61784 | 18283 ft | 374 kts | 252° |
| 2026-04-15 09:40 | 50.14603 | 13.57916 | 19035 ft | 379 kts | 252° |
| 2026-04-15 09:40 | 50.13750 | 13.54008 | 19763 ft | 383 kts | 252° |
| 2026-04-15 09:40 | 50.12879 | 13.50055 | 20463 ft | 388 kts | 252° |
| 2026-04-15 09:40 | 50.11985 | 13.46054 | 21124 ft | 393 kts | 252° |
| 2026-04-15 09:41 | 50.11075 | 13.42020 | 21750 ft | 397 kts | 252° |
| 2026-04-15 09:41 | 50.10146 | 13.37942 | 22353 ft | 401 kts | 252° |
| 2026-04-15 09:41 | 50.09208 | 13.33820 | 22903 ft | 406 kts | 254° |
| 2026-04-15 09:41 | 50.08707 | 13.29505 | 23472 ft | 406 kts | 268° |
| 2026-04-15 09:42 | 50.08584 | 13.25101 | 24046 ft | 409 kts | 271° |
| 2026-04-15 09:42 | 50.08520 | 13.20709 | 24570 ft | 413 kts | 271° |
| 2026-04-15 09:42 | 50.08442 | 13.16224 | 25121 ft | 416 kts | 271° |
| 2026-04-15 09:42 | 50.08348 | 13.11648 | 25656 ft | 420 kts | 271° |
| 2026-04-15 09:43 | 50.08247 | 13.07084 | 26160 ft | 424 kts | 271° |
| 2026-04-15 09:43 | 50.08143 | 13.02483 | 26644 ft | 427 kts | 272° |
| 2026-04-15 09:43 | 50.08421 | 12.97905 | 27077 ft | 424 kts | 285° |
| 2026-04-15 09:43 | 50.09120 | 12.93442 | 27554 ft | 426 kts | 288° |
| 2026-04-15 09:44 | 50.09880 | 12.89043 | 27965 ft | 429 kts | 289° |
| 2026-04-15 09:44 | 50.10663 | 12.84563 | 28421 ft | 431 kts | 289° |
| 2026-04-15 09:44 | 50.11441 | 12.80037 | 28859 ft | 433 kts | 289° |
| 2026-04-15 09:44 | 50.12206 | 12.75472 | 29240 ft | 437 kts | 289° |
| 2026-04-15 09:45 | 50.12841 | 12.71620 | 29733 ft | 435 kts | 289° |
| 2026-04-15 09:45 | 50.13587 | 12.67073 | 30336 ft | 432 kts | 289° |
| 2026-04-15 09:45 | 50.15067 | 12.58148 | 30311 ft | 422 kts | 289° |
| 2026-04-15 09:46 | 50.16537 | 12.49302 | 30249 ft | 422 kts | 289° |
| 2026-04-15 09:46 | 50.17997 | 12.40439 | 30271 ft | 422 kts | 289° |
| 2026-04-15 09:47 | 50.19583 | 12.31635 | 30277 ft | 419 kts | 294° |
| 2026-04-15 09:47 | 50.21528 | 12.23068 | 30263 ft | 419 kts | 295° |
| 2026-04-15 09:48 | 50.23502 | 12.14585 | 30262 ft | 418 kts | 295° |
| 2026-04-15 09:48 | 50.25469 | 12.06021 | 30261 ft | 417 kts | 294° |
| 2026-04-15 09:49 | 50.27411 | 11.97494 | 30273 ft | 417 kts | 294° |
| 2026-04-15 09:49 | 50.29371 | 11.88970 | 30267 ft | 417 kts | 294° |
| 2026-04-15 09:50 | 50.31318 | 11.80457 | 30267 ft | 417 kts | 294° |
| 2026-04-15 09:50 | 50.33260 | 11.71897 | 30267 ft | 417 kts | 294° |
| 2026-04-15 09:51 | 50.35195 | 11.63347 | 30266 ft | 417 kts | 294° |
| 2026-04-15 09:51 | 50.37120 | 11.54818 | 30257 ft | 414 kts | 294° |
| 2026-04-15 09:52 | 50.39037 | 11.46288 | 30252 ft | 415 kts | 294° |
| 2026-04-15 09:52 | 50.40946 | 11.37764 | 30247 ft | 415 kts | 293° |
| 2026-04-15 09:53 | 50.42845 | 11.29233 | 30252 ft | 415 kts | 293° |
| 2026-04-15 09:53 | 50.44742 | 11.20661 | 30254 ft | 415 kts | 293° |
| 2026-04-15 09:54 | 50.46622 | 11.12144 | 30240 ft | 410 kts | 293° |
| 2026-04-15 09:54 | 50.48484 | 11.03684 | 30257 ft | 411 kts | 293° |
| 2026-04-15 09:55 | 50.50338 | 10.95222 | 30256 ft | 410 kts | 292° |
| 2026-04-15 09:55 | 50.52189 | 10.86743 | 30260 ft | 411 kts | 292° |
| 2026-04-15 09:56 | 50.54039 | 10.78262 | 30253 ft | 411 kts | 293° |
| 2026-04-15 09:57 | 50.56816 | 10.66161 | 30243 ft | 408 kts | 293° |
| 2026-04-15 09:57 | 50.57771 | 10.61967 | 30249 ft | 408 kts | 293° |
| 2026-04-15 09:58 | 50.58173 | 10.60184 | 30259 ft | 408 kts | 293° |
| 2026-04-15 09:58 | 50.60046 | 10.51710 | 30271 ft | 409 kts | 292° |
| 2026-04-15 09:59 | 50.61861 | 10.43206 | 30277 ft | 410 kts | 292° |
| 2026-04-15 09:59 | 50.63618 | 10.34677 | 30293 ft | 411 kts | 291° |
| 2026-04-15 10:00 | 50.65330 | 10.26063 | 30305 ft | 411 kts | 291° |
| 2026-04-15 10:00 | 50.66429 | 10.20366 | 30339 ft | 411 kts | 290° |
| 2026-04-15 10:01 | 50.68155 | 10.11844 | 29943 ft | 413 kts | 299° |
| 2026-04-15 10:01 | 50.70002 | 10.08292 | 28312 ft | 433 kts | 327° |
| 2026-04-15 10:01 | 50.72665 | 10.06404 | 27694 ft | 406 kts | 341° |
| 2026-04-15 10:01 | 50.75288 | 10.05486 | 26695 ft | 364 kts | 351° |
| 2026-04-15 10:02 | 50.77519 | 10.05009 | 26544 ft | 288 kts | 352° |
| 2026-04-15 10:02 | 50.79393 | 10.04667 | 25488 ft | 269 kts | 352° |
| 2026-04-15 10:02 | 50.81328 | 10.04242 | 23367 ft | 293 kts | 350° |
| 2026-04-15 10:02 | 50.83354 | 10.03743 | 21389 ft | 296 kts | 349° |
| 2026-04-15 10:03 | 50.85337 | 10.03138 | 20011 ft | 284 kts | 347° |
| 2026-04-15 10:03 | 50.87186 | 10.02397 | 19399 ft | 257 kts | 341° |
| 2026-04-15 10:03 | 50.88700 | 10.01504 | 19542 ft | 219 kts | 337° |
| 2026-04-15 10:03 | 50.90150 | 10.00563 | 18666 ft | 234 kts | 336° |
| 2026-04-15 10:04 | 50.91676 | 9.99589 | 17854 ft | 237 kts | 337° |
| 2026-04-15 10:04 | 50.93127 | 9.98712 | 17799 ft | 213 kts | 337° |
| 2026-04-15 10:04 | 50.94497 | 9.97888 | 17398 ft | 212 kts | 341° |
| 2026-04-15 10:04 | 50.95972 | 9.97426 | 16793 ft | 219 kts | 351° |
| 2026-04-15 10:05 | 50.97533 | 9.97544 | 15653 ft | 242 kts | 8° |
| 2026-04-15 10:05 | 50.99191 | 9.98295 | 14471 ft | 253 kts | 16° |
| 2026-04-15 10:05 | 51.00874 | 9.99290 | 13083 ft | 262 kts | 20° |
| 2026-04-15 10:05 | 51.02475 | 10.00554 | 12034 ft | 253 kts | 32° |
| 2026-04-15 10:06 | 51.03702 | 10.02625 | 9625 ft | 271 kts | 54° |
| 2026-04-15 10:06 | 51.04430 | 10.05479 | 7498 ft | 275 kts | 81° |
| 2026-04-15 10:06 | 51.04030 | 10.08316 | 5460 ft | 265 kts | 117° |
| 2026-04-15 10:06 | 51.02889 | 10.10473 | 3966 ft | 251 kts | 140° |
| 2026-04-15 10:07 | 51.01444 | 10.11836 | 3304 ft | 230 kts | 150° |
| 2026-04-15 10:07 | 51.00363 | 10.13301 | 3779 ft | 186 kts | 128° |
| 2026-04-15 10:07 | 50.99893 | 10.15110 | 3801 ft | 188 kts | 100° |
| 2026-04-15 10:07 | 50.99822 | 10.17199 | 3849 ft | 186 kts | 87° |
| 2026-04-15 10:08 | 51.00014 | 10.19219 | 3900 ft | 185 kts | 80° |
| 2026-04-15 10:08 | 51.00306 | 10.21190 | 3857 ft | 185 kts | 76° |
| 2026-04-15 10:08 | 51.00665 | 10.23156 | 3700 ft | 184 kts | 73° |
| 2026-04-15 10:08 | 51.01095 | 10.25112 | 3414 ft | 189 kts | 71° |
| 2026-04-15 10:09 | 51.01525 | 10.27108 | 3180 ft | 187 kts | 72° |
| 2026-04-15 10:09 | 51.01882 | 10.29012 | 3284 ft | 176 kts | 75° |
| 2026-04-15 10:09 | 51.02078 | 10.30843 | 3493 ft | 162 kts | 94° |
| 2026-04-15 10:09 | 51.01785 | 10.32676 | 3162 ft | 177 kts | 108° |
| 2026-04-15 10:10 | 51.01372 | 10.34545 | 2932 ft | 182 kts | 109° |
| 2026-04-15 10:10 | 51.00995 | 10.36489 | 2676 ft | 185 kts | 105° |
| 2026-04-15 10:10 | 51.00677 | 10.38483 | 2357 ft | 188 kts | 102° |
| 2026-04-15 10:10 | 51.00377 | 10.40483 | 2072 ft | 189 kts | 103° |
| 2026-04-15 10:11 | 51.00052 | 10.42522 | 1691 ft | 192 kts | 104° |
| 2026-04-15 10:11 | 50.99715 | 10.44558 | 1439 ft | 188 kts | 103° |
| 2026-04-15 10:11 | 50.99387 | 10.46572 | 1180 ft | 188 kts | 104° |
| 2026-04-15 10:11 | 50.99058 | 10.48517 | 1103 ft | 175 kts | 109° |
| 2026-04-15 10:12 | 50.99057 | 10.49530 | 1103 ft | 49 kts | 64° |
| 2026-04-15 10:12 | 50.10691 | 14.26371 | 1171 ft | 0 kts | 214° |
| 2026-04-15 10:13 | 50.10699 | 14.26379 | 1172 ft | 0 kts | 214° |
| 2026-04-15 10:17 | 50.10703 | 14.26384 | 1176 ft | 2 kts | 214° |
| 2026-04-15 10:17 | 50.10719 | 14.26401 | 1171 ft | 3 kts | 214° |
| 2026-04-15 10:18 | 50.10734 | 14.26416 | 1171 ft | 3 kts | 248° |
| 2026-04-15 10:18 | 50.10734 | 14.26437 | 1171 ft | 2 kts | 302° |
| 2026-04-15 10:18 | 50.10728 | 14.26452 | 1171 ft | 2 kts | 304° |
| 2026-04-15 10:18 | 50.10718 | 14.26475 | 1171 ft | 2 kts | 304° |
| 2026-04-15 10:19 | 50.10716 | 14.26480 | 1171 ft | 0 kts | 304° |
| 2026-04-15 10:20 | 50.10722 | 14.26468 | 1173 ft | 6 kts | 304° |
| 2026-04-15 10:20 | 50.10759 | 14.26384 | 1174 ft | 11 kts | 304° |
| 2026-04-15 10:20 | 50.10805 | 14.26276 | 1173 ft | 11 kts | 297° |
| 2026-04-15 10:21 | 50.10760 | 14.26206 | 1175 ft | 16 kts | 214° |
| 2026-04-15 10:21 | 50.10658 | 14.26098 | 1173 ft | 18 kts | 214° |
| 2026-04-15 10:21 | 50.10551 | 14.25991 | 1179 ft | 14 kts | 214° |
| 2026-04-15 10:21 | 50.10472 | 14.26034 | 1184 ft | 18 kts | 127° |
| 2026-04-15 10:22 | 50.10371 | 14.26245 | 1188 ft | 27 kts | 126° |
| 2026-04-15 10:22 | 50.10255 | 14.26486 | 1193 ft | 29 kts | 128° |
| 2026-04-15 10:22 | 50.10136 | 14.26734 | 1197 ft | 28 kts | 127° |
| 2026-04-15 10:22 | 50.10019 | 14.26973 | 1202 ft | 27 kts | 127° |
| 2026-04-15 10:23 | 50.09907 | 14.27209 | 1203 ft | 28 kts | 127° |
| 2026-04-15 10:23 | 50.09778 | 14.27432 | 1204 ft | 28 kts | 135° |
| 2026-04-15 10:23 | 50.09638 | 14.27624 | 1207 ft | 25 kts | 155° |
| 2026-04-15 10:23 | 50.09508 | 14.27548 | 1212 ft | 19 kts | 216° |
| 2026-04-15 10:24 | 50.09420 | 14.27415 | 1217 ft | 16 kts | 261° |
| 2026-04-15 10:24 | 50.09529 | 14.27170 | 1213 ft | 57 kts | 307° |
| 2026-04-15 10:24 | 50.09898 | 14.26403 | 1205 ft | 119 kts | 307° |
| 2026-04-15 10:24 | 50.10490 | 14.25192 | 1369 ft | 153 kts | 308° |
| 2026-04-15 10:25 | 50.11143 | 14.23726 | 1831 ft | 176 kts | 304° |
| 2026-04-15 10:25 | 50.11871 | 14.22065 | 2417 ft | 194 kts | 307° |
| 2026-04-15 10:25 | 50.12692 | 14.20336 | 3015 ft | 204 kts | 309° |
| 2026-04-15 10:25 | 50.13603 | 14.18565 | 3561 ft | 214 kts | 310° |
| 2026-04-15 10:26 | 50.14535 | 14.16731 | 4234 ft | 216 kts | 308° |
| 2026-04-15 10:26 | 50.15474 | 14.14818 | 4702 ft | 232 kts | 307° |
| 2026-04-15 10:26 | 50.16486 | 14.12728 | 5108 ft | 255 kts | 306° |
| 2026-04-15 10:26 | 50.17583 | 14.10437 | 5648 ft | 269 kts | 306° |
| 2026-04-15 10:27 | 50.18715 | 14.08080 | 6439 ft | 272 kts | 306° |
| 2026-04-15 10:27 | 50.19853 | 14.05713 | 7245 ft | 273 kts | 306° |
| 2026-04-15 10:27 | 50.20980 | 14.03356 | 8051 ft | 273 kts | 305° |
| 2026-04-15 10:27 | 50.22077 | 14.00949 | 8710 ft | 277 kts | 298° |
| 2026-04-15 10:28 | 50.22622 | 13.98079 | 9425 ft | 278 kts | 271° |
| 2026-04-15 10:28 | 50.22282 | 13.95100 | 10179 ft | 278 kts | 253° |
| 2026-04-15 10:28 | 50.21712 | 13.92183 | 10554 ft | 295 kts | 253° |
| 2026-04-15 10:28 | 50.21175 | 13.89517 | 10700 ft | 313 kts | 252° |
| 2026-04-15 10:29 | 50.20474 | 13.86186 | 10933 ft | 330 kts | 252° |
| 2026-04-15 10:29 | 50.19753 | 13.82749 | 11502 ft | 335 kts | 252° |
| 2026-04-15 10:29 | 50.19040 | 13.79273 | 12166 ft | 337 kts | 252° |
| 2026-04-15 10:29 | 50.18323 | 13.75769 | 12834 ft | 340 kts | 252° |
| 2026-04-15 10:30 | 50.17594 | 13.72237 | 13470 ft | 344 kts | 252° |
| 2026-04-15 10:30 | 50.16845 | 13.68669 | 14101 ft | 348 kts | 252° |
| 2026-04-15 10:30 | 50.16080 | 13.65061 | 14698 ft | 352 kts | 252° |
| 2026-04-15 10:30 | 50.15305 | 13.61427 | 15280 ft | 355 kts | 252° |
| 2026-04-15 10:31 | 50.14513 | 13.57751 | 15847 ft | 359 kts | 252° |
| 2026-04-15 10:31 | 50.13709 | 13.54051 | 16404 ft | 363 kts | 252° |
| 2026-04-15 10:31 | 50.12889 | 13.50312 | 16964 ft | 366 kts | 252° |
| 2026-04-15 10:31 | 50.12056 | 13.46543 | 17540 ft | 370 kts | 252° |
| 2026-04-15 10:32 | 50.11209 | 13.42732 | 18110 ft | 374 kts | 251° |
| 2026-04-15 10:32 | 50.10347 | 13.38891 | 18664 ft | 378 kts | 251° |
| 2026-04-15 10:32 | 50.09470 | 13.35013 | 19205 ft | 381 kts | 252° |
| 2026-04-15 10:32 | 50.08812 | 13.31022 | 19707 ft | 383 kts | 265° |
| 2026-04-15 10:33 | 50.08639 | 13.26880 | 20262 ft | 385 kts | 269° |
| 2026-04-15 10:33 | 50.08574 | 13.22700 | 20800 ft | 388 kts | 270° |
| 2026-04-15 10:33 | 50.08501 | 13.18477 | 21310 ft | 391 kts | 270° |
| 2026-04-15 10:33 | 50.08417 | 13.14226 | 21790 ft | 395 kts | 270° |
| 2026-04-15 10:34 | 50.08321 | 13.09948 | 22251 ft | 398 kts | 270° |
| 2026-04-15 10:34 | 50.08219 | 13.05633 | 22707 ft | 400 kts | 270° |
| 2026-04-15 10:34 | 50.08133 | 13.01283 | 23136 ft | 402 kts | 273° |
| 2026-04-15 10:34 | 50.08541 | 12.96988 | 23546 ft | 402 kts | 285° |
| 2026-04-15 10:35 | 50.09230 | 12.92816 | 23965 ft | 404 kts | 287° |
| 2026-04-15 10:35 | 50.09966 | 12.88585 | 24335 ft | 406 kts | 287° |
| 2026-04-15 10:35 | 50.10698 | 12.84324 | 24729 ft | 409 kts | 287° |
| 2026-04-15 10:35 | 50.11426 | 12.80021 | 25220 ft | 412 kts | 287° |
| 2026-04-15 10:36 | 50.12151 | 12.75690 | 25813 ft | 414 kts | 287° |
| 2026-04-15 10:36 | 50.12878 | 12.71330 | 26351 ft | 417 kts | 288° |
| 2026-04-15 10:36 | 50.13610 | 12.66935 | 26853 ft | 421 kts | 288° |
| 2026-04-15 10:36 | 50.14347 | 12.62497 | 27315 ft | 424 kts | 288° |
| 2026-04-15 10:37 | 50.15088 | 12.58034 | 27777 ft | 427 kts | 288° |
| 2026-04-15 10:37 | 50.15833 | 12.53537 | 28211 ft | 430 kts | 288° |
| 2026-04-15 10:37 | 50.16576 | 12.49037 | 28638 ft | 433 kts | 288° |
| 2026-04-15 10:37 | 50.17329 | 12.44471 | 29011 ft | 436 kts | 288° |
| 2026-04-15 10:38 | 50.18085 | 12.39879 | 29462 ft | 437 kts | 289° |
| 2026-04-15 10:38 | 50.18836 | 12.35302 | 30081 ft | 433 kts | 289° |
| 2026-04-15 10:38 | 50.19739 | 12.30879 | 30232 ft | 424 kts | 294° |
| 2026-04-15 10:39 | 50.21696 | 12.22298 | 30256 ft | 419 kts | 295° |
| 2026-04-15 10:39 | 50.23701 | 12.13756 | 30266 ft | 419 kts | 295° |
| 2026-04-15 10:40 | 50.25660 | 12.05192 | 30287 ft | 417 kts | 294° |
| 2026-04-15 10:40 | 50.27601 | 11.96656 | 30277 ft | 417 kts | 294° |
| 2026-04-15 10:41 | 50.29555 | 11.88170 | 30266 ft | 417 kts | 294° |
| 2026-04-15 10:41 | 50.31507 | 11.79633 | 30269 ft | 417 kts | 294° |
| 2026-04-15 10:42 | 50.33448 | 11.71066 | 30266 ft | 417 kts | 294° |
| 2026-04-15 10:42 | 50.35385 | 11.62511 | 30259 ft | 417 kts | 294° |
| 2026-04-15 10:43 | 50.37310 | 11.53978 | 30249 ft | 415 kts | 294° |
| 2026-04-15 10:43 | 50.39227 | 11.45442 | 30251 ft | 415 kts | 293° |
| 2026-04-15 10:44 | 50.41136 | 11.36914 | 30251 ft | 415 kts | 293° |
| 2026-04-15 10:44 | 50.43025 | 11.28416 | 30255 ft | 415 kts | 293° |
| 2026-04-15 10:45 | 50.44918 | 11.19868 | 30250 ft | 414 kts | 293° |
| 2026-04-15 10:45 | 50.46797 | 11.11355 | 30251 ft | 410 kts | 293° |
| 2026-04-15 10:46 | 50.48658 | 11.02887 | 30253 ft | 411 kts | 293° |
| 2026-04-15 10:46 | 50.50516 | 10.94414 | 30255 ft | 410 kts | 292° |
| 2026-04-15 10:47 | 50.52369 | 10.85919 | 30245 ft | 411 kts | 292° |
| 2026-04-15 10:47 | 50.54224 | 10.77434 | 30250 ft | 411 kts | 293° |
| 2026-04-15 10:48 | 50.55829 | 10.70440 | 30255 ft | 407 kts | 294° |
| 2026-04-15 10:48 | 50.57757 | 10.62033 | 30253 ft | 408 kts | 293° |
| 2026-04-15 10:49 | 50.59647 | 10.53605 | 30256 ft | 409 kts | 293° |
| 2026-04-15 10:49 | 50.61540 | 10.45157 | 30246 ft | 409 kts | 293° |
| 2026-04-15 10:50 | 50.63431 | 10.36721 | 30254 ft | 409 kts | 293° |
| 2026-04-15 10:50 | 50.64143 | 10.32368 | 30264 ft | 414 kts | 282° |
| 2026-04-15 10:50 | 50.64195 | 10.27795 | 30273 ft | 421 kts | 268° |
| 2026-04-15 10:50 | 50.63535 | 10.23251 | 30271 ft | 431 kts | 254° |
| 2026-04-15 10:51 | 50.62277 | 10.18952 | 30258 ft | 435 kts | 248° |
| 2026-04-15 10:51 | 50.59377 | 10.10571 | 30247 ft | 436 kts | 245° |
| 2026-04-15 10:52 | 50.56416 | 10.02251 | 30243 ft | 435 kts | 246° |
| 2026-04-15 10:52 | 50.53816 | 9.93710 | 30258 ft | 429 kts | 257° |
| 2026-04-15 10:53 | 50.52117 | 9.84736 | 30240 ft | 427 kts | 259° |
| 2026-04-15 10:53 | 50.50535 | 9.75713 | 30235 ft | 425 kts | 259° |
| 2026-04-15 10:54 | 50.48952 | 9.66817 | 30239 ft | 424 kts | 259° |
| 2026-04-15 10:54 | 50.47442 | 9.57850 | 30239 ft | 426 kts | 260° |
| 2026-04-15 10:55 | 50.45802 | 9.48892 | 30230 ft | 428 kts | 257° |
| 2026-04-15 10:55 | 50.44043 | 9.39983 | 30234 ft | 427 kts | 258° |
| 2026-04-15 10:56 | 50.42340 | 9.31044 | 30232 ft | 427 kts | 258° |
| 2026-04-15 10:56 | 50.41185 | 9.26736 | 30221 ft | 435 kts | 242° |
| 2026-04-15 10:56 | 50.39225 | 9.23160 | 30259 ft | 435 kts | 224° |
| 2026-04-15 10:57 | 50.34093 | 9.17937 | 30220 ft | 440 kts | 214° |
| 2026-04-15 10:57 | 50.26762 | 9.09608 | 30270 ft | 430 kts | 241° |
| 2026-04-15 10:58 | 50.25539 | 9.05390 | 30296 ft | 422 kts | 255° |
| 2026-04-15 10:58 | 50.24643 | 9.01044 | 30201 ft | 420 kts | 256° |
| 2026-04-15 10:58 | 50.22755 | 8.92181 | 29155 ft | 428 kts | 253° |
| 2026-04-15 10:59 | 50.21757 | 8.87881 | 28291 ft | 423 kts | 253° |
| 2026-04-15 10:59 | 50.20734 | 8.83610 | 27469 ft | 418 kts | 252° |
| 2026-04-15 10:59 | 50.19696 | 8.79404 | 26682 ft | 412 kts | 251° |
| 2026-04-15 10:59 | 50.18689 | 8.75257 | 25936 ft | 406 kts | 251° |
| 2026-04-15 11:00 | 50.17706 | 8.71155 | 25219 ft | 400 kts | 251° |
| 2026-04-15 11:00 | 50.16746 | 8.67121 | 24533 ft | 395 kts | 251° |
| 2026-04-15 11:00 | 50.15786 | 8.63083 | 23873 ft | 389 kts | 251° |
| 2026-04-15 11:00 | 50.14851 | 8.59157 | 23120 ft | 384 kts | 250° |
| 2026-04-15 11:01 | 50.13926 | 8.55285 | 22392 ft | 378 kts | 250° |
| 2026-04-15 11:01 | 50.13016 | 8.51471 | 21695 ft | 373 kts | 250° |
| 2026-04-15 11:01 | 50.12115 | 8.47707 | 21019 ft | 368 kts | 250° |
| 2026-04-15 11:01 | 50.11236 | 8.44041 | 20375 ft | 364 kts | 250° |
| 2026-04-15 11:02 | 50.10351 | 8.40373 | 19777 ft | 359 kts | 250° |
| 2026-04-15 11:02 | 50.09475 | 8.36753 | 19090 ft | 357 kts | 250° |
| 2026-04-15 11:02 | 50.08597 | 8.33131 | 18318 ft | 357 kts | 249° |
| 2026-04-15 11:02 | 50.07719 | 8.29511 | 17485 ft | 357 kts | 249° |
| 2026-04-15 11:03 | 50.06845 | 8.25902 | 16677 ft | 353 kts | 249° |
| 2026-04-15 11:03 | 50.05997 | 8.22428 | 15880 ft | 334 kts | 249° |
| 2026-04-15 11:03 | 50.05193 | 8.19124 | 15139 ft | 318 kts | 249° |
| 2026-04-15 11:03 | 50.04422 | 8.15966 | 14448 ft | 305 kts | 249° |
| 2026-04-15 11:04 | 50.03684 | 8.12943 | 13769 ft | 294 kts | 249° |
| 2026-04-15 11:04 | 50.02968 | 8.10012 | 13079 ft | 286 kts | 249° |
| 2026-04-15 11:04 | 50.02203 | 8.07201 | 12409 ft | 278 kts | 238° |
| 2026-04-15 11:04 | 50.00874 | 8.05104 | 11744 ft | 272 kts | 211° |
| 2026-04-15 11:05 | 49.99093 | 8.04260 | 11013 ft | 270 kts | 182° |
| 2026-04-15 11:05 | 49.97277 | 8.04871 | 10326 ft | 269 kts | 153° |
| 2026-04-15 11:05 | 49.95887 | 8.06769 | 9606 ft | 271 kts | 124° |
| 2026-04-15 11:05 | 49.95093 | 8.09438 | 9142 ft | 273 kts | 113° |
| 2026-04-15 11:06 | 49.94400 | 8.12158 | 8602 ft | 267 kts | 114° |
| 2026-04-15 11:06 | 49.93814 | 8.14870 | 7935 ft | 263 kts | 101° |
| 2026-04-15 11:06 | 49.93989 | 8.17616 | 7339 ft | 254 kts | 71° |
| 2026-04-15 11:06 | 49.94733 | 8.20035 | 6739 ft | 244 kts | 65° |
| 2026-04-15 11:07 | 49.95352 | 8.22424 | 6085 ft | 233 kts | 74° |
| 2026-04-15 11:07 | 49.95840 | 8.24773 | 5325 ft | 222 kts | 72° |
| 2026-04-15 11:07 | 49.96387 | 8.26923 | 4599 ft | 214 kts | 69° |
| 2026-04-15 11:07 | 49.96915 | 8.29029 | 3902 ft | 205 kts | 71° |
| 2026-04-15 11:08 | 49.97401 | 8.31089 | 3396 ft | 196 kts | 70° |
| 2026-04-15 11:08 | 49.97855 | 8.33016 | 3145 ft | 185 kts | 70° |
| 2026-04-15 11:08 | 49.98295 | 8.34816 | 2908 ft | 177 kts | 70° |
| 2026-04-15 11:08 | 49.98714 | 8.36542 | 2667 ft | 162 kts | 70° |
| 2026-04-15 11:09 | 49.99095 | 8.38130 | 2456 ft | 149 kts | 70° |
| 2026-04-15 11:09 | 49.99448 | 8.39603 | 2263 ft | 144 kts | 70° |
| 2026-04-15 11:09 | 49.99793 | 8.41031 | 2043 ft | 138 kts | 70° |
| 2026-04-15 11:09 | 50.00115 | 8.42387 | 1854 ft | 130 kts | 70° |
| 2026-04-15 11:10 | 50.00431 | 8.43710 | 1694 ft | 130 kts | 70° |
| 2026-04-15 11:10 | 50.00744 | 8.45004 | 1498 ft | 129 kts | 70° |
| 2026-04-15 11:10 | 50.01061 | 8.46324 | 1322 ft | 132 kts | 70° |
| 2026-04-15 11:10 | 50.01380 | 8.47666 | 1158 ft | 132 kts | 70° |
| 2026-04-15 11:11 | 50.01703 | 8.49020 | 984 ft | 134 kts | 71° |
| 2026-04-15 11:11 | 50.02031 | 8.50386 | 794 ft | 136 kts | 70° |
| 2026-04-15 11:11 | 50.02369 | 8.51758 | 592 ft | 135 kts | 72° |
| 2026-04-15 11:11 | 50.02685 | 8.53111 | 411 ft | 133 kts | 72° |
| 2026-04-15 11:12 | 50.02995 | 8.54417 | 333 ft | 117 kts | 70° |
| 2026-04-15 11:12 | 50.03240 | 8.55446 | 350 ft | 85 kts | 70° |
| 2026-04-15 11:12 | 50.03406 | 8.56125 | 351 ft | 43 kts | 63° |
| 2026-04-15 11:12 | 50.03517 | 8.56345 | 347 ft | 21 kts | 43° |
| 2026-04-15 11:13 | 50.03630 | 8.56490 | 350 ft | 19 kts | 39° |
| 2026-04-15 11:13 | 50.03700 | 8.56580 | 355 ft | 7 kts | 39° |
| 2026-04-15 11:13 | 50.03716 | 8.56600 | 350 ft | 0 kts | 38° |
| 2026-04-15 11:15 | 50.03739 | 8.56631 | 360 ft | 8 kts | 42° |
| 2026-04-15 11:15 | 50.03792 | 8.56736 | 353 ft | 15 kts | 62° |
| 2026-04-15 11:15 | 50.03834 | 8.56906 | 352 ft | 19 kts | 70° |
| 2026-04-15 11:15 | 50.03884 | 8.57114 | 362 ft | 21 kts | 69° |
| 2026-04-15 11:16 | 50.03936 | 8.57330 | 361 ft | 21 kts | 69° |
| 2026-04-15 11:16 | 50.03987 | 8.57546 | 366 ft | 22 kts | 69° |
| 2026-04-15 11:16 | 50.04041 | 8.57772 | 368 ft | 22 kts | 69° |
| 2026-04-15 11:16 | 50.04097 | 8.58002 | 370 ft | 21 kts | 69° |
| 2026-04-15 11:17 | 50.04166 | 8.58154 | 366 ft | 17 kts | 26° |
| 2026-04-15 11:17 | 50.04250 | 8.58209 | 367 ft | 10 kts | 11° |
| 2026-04-15 11:17 | 50.04288 | 8.58202 | 367 ft | 0 kts | 340° |
| 2026-04-15 11:18 | 50.04289 | 8.58201 | 367 ft | 2 kts | 340° |
| 2026-04-15 11:18 | 50.04318 | 8.58185 | 368 ft | 7 kts | 339° |
| 2026-04-15 11:18 | 50.04389 | 8.58144 | 370 ft | 14 kts | 340° |
| 2026-04-15 11:19 | 50.04492 | 8.58086 | 366 ft | 15 kts | 339° |
| 2026-04-15 11:19 | 50.04535 | 8.57988 | 363 ft | 13 kts | 256° |
| 2026-04-15 11:19 | 50.04502 | 8.57848 | 364 ft | 15 kts | 249° |
| 2026-04-15 11:19 | 50.04463 | 8.57686 | 364 ft | 17 kts | 250° |
| 2026-04-15 11:20 | 50.04417 | 8.57493 | 360 ft | 21 kts | 249° |
| 2026-04-15 11:20 | 50.04366 | 8.57279 | 363 ft | 21 kts | 250° |
| 2026-04-15 11:20 | 50.04315 | 8.57063 | 361 ft | 21 kts | 250° |
| 2026-04-15 11:20 | 50.04277 | 8.56894 | 360 ft | 10 kts | 261° |
| 2026-04-15 11:21 | 50.04309 | 8.56825 | 362 ft | 9 kts | 343° |
| 2026-04-15 11:21 | 50.04380 | 8.56838 | 359 ft | 12 kts | 9° |
| 2026-04-15 11:21 | 50.04471 | 8.56862 | 358 ft | 14 kts | 12° |
| 2026-04-15 11:21 | 50.04550 | 8.56891 | 358 ft | 10 kts | 13° |
| 2026-04-15 11:22 | 50.04585 | 8.56851 | 355 ft | 4 kts | 289° |
| 2026-04-15 11:22 | 50.04600 | 8.56799 | 356 ft | 6 kts | 294° |
| 2026-04-15 11:22 | 50.04606 | 8.56778 | 359 ft | 0 kts | 295° |